sensor_id;sensor_type;location;lat;lon;timestamp;pressure;altitude;pressure_sealevel;temperature;humidity
24620;BME280;12763;55.802;37.404;2023-01-28T00:00:48;100199.44;;;1.53;100.00
24620;BME280;12763;55.802;37.404;2023-01-28T00:03:14;100199.44;;;1.53;100.00
24620;BME280;12763;55.802;37.404;2023-01-28T00:05:41;100194.00;;;1.34;100.00
24620;BME280;12763;55.802;37.404;2023-01-28T00:08:07;100201.88;;;1.56;100.00
24620;BME280;12763;55.802;37.404;2023-01-28T00:10:36;100202.03;;;1.16;100.00
24620;BME280;12763;55.802;37.404;2023-01-28T00:13:07;100198.75;;;1.32;100.00
24620;BME280;12763;55.802;37.404;2023-01-28T00:15:34;100195.16;;;1.31;100.00
24620;BME280;12763;55.802;37.404;2023-01-28T00:18:00;100196.03;;;1.32;100.00
24620;BME280;12763;55.802;37.404;2023-01-28T00:20:25;100202.59;;;1.39;100.00
24620;BME280;12763;55.802;37.404;2023-01-28T00:22:51;100193.59;;;1.29;100.00
24620;BME280;12763;55.802;37.404;2023-01-28T00:25:17;100199.44;;;1.34;100.00
24620;BME280;12763;55.802;37.404;2023-01-28T00:27:44;100202.75;;;1.28;100.00
24620;BME280;12763;55.802;37.404;2023-01-28T00:30:10;100197.47;;;1.07;100.00
24620;BME280;12763;55.802;37.404;2023-01-28T00:32:36;100202.88;;;1.16;100.00
24620;BME280;12763;55.802;37.404;2023-01-28T00:35:01;100204.03;;;1.33;100.00
24620;BME280;12763;55.802;37.404;2023-01-28T00:37:29;100203.47;;;1.30;100.00
24620;BME280;12763;55.802;37.404;2023-01-28T00:39:57;100201.31;;;1.24;100.00
24620;BME280;12763;55.802;37.404;2023-01-28T00:42:23;100205.47;;;1.28;100.00
24620;BME280;12763;55.802;37.404;2023-01-28T00:44:49;100206.88;;;1.22;100.00
24620;BME280;12763;55.802;37.404;2023-01-28T00:47:15;100210.34;;;1.14;100.00
24620;BME280;12763;55.802;37.404;2023-01-28T00:49:40;100211.91;;;1.36;100.00
24620;BME280;12763;55.802;37.404;2023-01-28T00:52:08;100208.03;;;1.39;100.00
24620;BME280;12763;55.802;37.404;2023-01-28T00:54:36;100207.47;;;1.35;100.00
24620;BME280;12763;55.802;37.404;2023-01-28T00:57:02;100213.47;;;1.39;100.00
24620;BME280;12763;55.802;37.404;2023-01-28T00:59:28;100211.16;;;1.44;100.00
24620;BME280;12763;55.802;37.404;2023-01-28T01:01:54;100207.16;;;1.48;100.00
24620;BME280;12763;55.802;37.404;2023-01-28T01:04:39;100210.34;;;1.34;100.00
24620;BME280;12763;55.802;37.404;2023-01-28T01:07:05;100211.78;;;1.18;100.00
24620;BME280;12763;55.802;37.404;2023-01-28T01:09:31;100214.19;;;1.22;100.00
24620;BME280;12763;55.802;37.404;2023-01-28T01:11:57;100210.03;;;1.27;100.00
24620;BME280;12763;55.802;37.404;2023-01-28T01:14:22;100212.91;;;1.26;100.00
24620;BME280;12763;55.802;37.404;2023-01-28T01:16:48;100210.06;;;1.17;100.00
24620;BME280;12763;55.802;37.404;2023-01-28T01:19:14;100211.03;;;0.97;100.00
24620;BME280;12763;55.802;37.404;2023-01-28T01:21:42;100216.34;;;1.18;100.00
24620;BME280;12763;55.802;37.404;2023-01-28T01:24:11;100214.47;;;1.28;100.00
24620;BME280;12763;55.802;37.404;2023-01-28T01:26:37;100222.94;;;1.35;100.00
24620;BME280;12763;55.802;37.404;2023-01-28T01:29:03;100221.22;;;1.34;100.00
24620;BME280;12763;55.802;37.404;2023-01-28T01:31:28;100222.66;;;1.38;100.00
24620;BME280;12763;55.802;37.404;2023-01-28T01:33:54;100221.78;;;1.28;100.00
24620;BME280;12763;55.802;37.404;2023-01-28T01:36:20;100214.91;;;1.04;100.00
24620;BME280;12763;55.802;37.404;2023-01-28T01:38:47;100214.03;;;1.13;100.00
24620;BME280;12763;55.802;37.404;2023-01-28T01:41:28;100204.19;;;1.32;100.00
24620;BME280;12763;55.802;37.404;2023-01-28T01:44:01;100209.47;;;1.24;100.00
24620;BME280;12763;55.802;37.404;2023-01-28T01:46:48;100213.47;;;1.39;100.00
24620;BME280;12763;55.802;37.404;2023-01-28T01:49:22;100211.78;;;1.18;100.00
24620;BME280;12763;55.802;37.404;2023-01-28T01:51:52;100206.34;;;1.18;100.00
24620;BME280;12763;55.802;37.404;2023-01-28T01:54:22;100211.47;;;1.22;100.00
24620;BME280;12763;55.802;37.404;2023-01-28T01:56:55;100212.63;;;1.09;100.00
24620;BME280;12763;55.802;37.404;2023-01-28T01:59:27;100210.50;;;1.32;100.00
24620;BME280;12763;55.802;37.404;2023-01-28T02:01:56;100218.34;;;1.26;100.00
24620;BME280;12763;55.802;37.404;2023-01-28T02:04:32;100209.75;;;1.11;100.00
24620;BME280;12763;55.802;37.404;2023-01-28T02:07:00;100217.78;;;0.93;100.00
24620;BME280;12763;55.802;37.404;2023-01-28T02:09:32;100223.19;;;0.93;100.00
24620;BME280;12763;55.802;37.404;2023-01-28T02:12:02;100223.72;;;0.68;100.00
24620;BME280;12763;55.802;37.404;2023-01-28T02:14:34;100220.88;;;0.79;100.00
24620;BME280;12763;55.802;37.404;2023-01-28T02:17:20;100219.47;;;0.94;100.00
24620;BME280;12763;55.802;37.404;2023-01-28T02:19:48;100212.31;;;0.84;100.00
24620;BME280;12763;55.802;37.404;2023-01-28T02:25:12;100213.91;;;1.05;100.00
24620;BME280;12763;55.802;37.404;2023-01-28T02:28:00;100216.19;;;1.00;100.00
24620;BME280;12763;55.802;37.404;2023-01-28T02:30:37;100221.75;;;0.89;100.00
24620;BME280;12763;55.802;37.404;2023-01-28T02:33:30;100232.66;;;0.99;100.00
24620;BME280;12763;55.802;37.404;2023-01-28T02:36:21;100225.22;;;1.10;100.00
24620;BME280;12763;55.802;37.404;2023-01-28T02:38:49;100223.22;;;1.12;100.00
24620;BME280;12763;55.802;37.404;2023-01-28T02:44:25;100232.38;;;1.02;100.00
24620;BME280;12763;55.802;37.404;2023-01-28T02:46:52;100237.50;;;0.95;100.00
24620;BME280;12763;55.802;37.404;2023-01-28T02:49:54;100236.06;;;1.01;100.00
24620;BME280;12763;55.802;37.404;2023-01-28T02:55:44;100241.66;;;0.99;100.00
24620;BME280;12763;55.802;37.404;2023-01-28T03:00:54;100242.63;;;0.89;100.00
24620;BME280;12763;55.802;37.404;2023-01-28T03:06:18;100250.81;;;0.98;100.00
24620;BME280;12763;55.802;37.404;2023-01-28T03:08:48;100248.75;;;0.81;100.00
24620;BME280;12763;55.802;37.404;2023-01-28T03:11:36;100251.09;;;0.95;100.00
24620;BME280;12763;55.802;37.404;2023-01-28T03:14:23;100249.19;;;0.86;100.00
24620;BME280;12763;55.802;37.404;2023-01-28T03:17:18;100250.06;;;0.87;100.00
24620;BME280;12763;55.802;37.404;2023-01-28T03:20:04;100253.63;;;0.78;100.00
24620;BME280;12763;55.802;37.404;2023-01-28T03:22:50;100250.66;;;1.00;100.00
24620;BME280;12763;55.802;37.404;2023-01-28T03:25:36;100244.66;;;0.96;100.00
24620;BME280;12763;55.802;37.404;2023-01-28T03:28:25;100249.75;;;0.80;100.00
24620;BME280;12763;55.802;37.404;2023-01-28T03:31:14;100243.63;;;0.97;100.00
24620;BME280;12763;55.802;37.404;2023-01-28T03:34:01;100248.34;;;0.76;100.00
24620;BME280;12763;55.802;37.404;2023-01-28T03:36:47;100246.47;;;0.77;100.00
24620;BME280;12763;55.802;37.404;2023-01-28T03:39:49;100253.22;;;0.82;100.00
24620;BME280;12763;55.802;37.404;2023-01-28T03:42:15;100245.34;;;0.79;100.00
24620;BME280;12763;55.802;37.404;2023-01-28T03:45:12;100248.28;;;0.57;100.00
24620;BME280;12763;55.802;37.404;2023-01-28T03:47:39;100247.47;;;0.66;100.00
24620;BME280;12763;55.802;37.404;2023-01-28T03:50:07;100249.91;;;0.79;100.00
24620;BME280;12763;55.802;37.404;2023-01-28T03:52:51;100249.75;;;0.80;99.78
24620;BME280;12763;55.802;37.404;2023-01-28T03:55:25;100248.88;;;0.70;99.90
24620;BME280;12763;55.802;37.404;2023-01-28T03:57:51;100244.09;;;0.43;100.00
24620;BME280;12763;55.802;37.404;2023-01-28T04:00:17;100260.88;;;0.28;100.00
24620;BME280;12763;55.802;37.404;2023-01-28T04:02:44;100252.44;;;0.31;100.00
24620;BME280;12763;55.802;37.404;2023-01-28T04:05:15;100238.22;;;0.48;99.94
24620;BME280;12763;55.802;37.404;2023-01-28T04:07:47;100253.00;;;0.65;99.05
24620;BME280;12763;55.802;37.404;2023-01-28T04:10:32;100255.34;;;0.39;99.62
24620;BME280;12763;55.802;37.404;2023-01-28T04:13:09;100247.06;;;0.40;99.25
24620;BME280;12763;55.802;37.404;2023-01-28T04:15:34;100251.28;;;0.54;98.93
24620;BME280;12763;55.802;37.404;2023-01-28T04:18:01;100261.09;;;0.45;98.25
24620;BME280;12763;55.802;37.404;2023-01-28T04:20:29;100253.09;;;0.44;98.05
24620;BME280;12763;55.802;37.404;2023-01-28T04:22:57;100257.16;;;0.29;98.58
24620;BME280;12763;55.802;37.404;2023-01-28T04:25:23;100255.41;;;0.48;97.99
24620;BME280;12763;55.802;37.404;2023-01-28T04:27:49;100249.91;;;0.39;97.50
24620;BME280;12763;55.802;37.404;2023-01-28T04:30:19;100247.84;;;0.62;96.94
24620;BME280;12763;55.802;37.404;2023-01-28T04:33:07;100255.91;;;0.33;96.16
24620;BME280;12763;55.802;37.404;2023-01-28T04:35:44;100259.97;;;0.48;96.46
24620;BME280;12763;55.802;37.404;2023-01-28T04:38:22;100250.88;;;0.68;95.56
24620;BME280;12763;55.802;37.404;2023-01-28T04:41:14;100257.16;;;0.59;94.86
24620;BME280;12763;55.802;37.404;2023-01-28T04:43:40;100261.97;;;0.46;95.17
24620;BME280;12763;55.802;37.404;2023-01-28T04:46:26;100262.47;;;0.30;95.12
24620;BME280;12763;55.802;37.404;2023-01-28T04:49:21;100249.75;;;0.31;94.75
24620;BME280;12763;55.802;37.404;2023-01-28T04:52:07;100257.06;;;0.40;94.16
24620;BME280;12763;55.802;37.404;2023-01-28T04:54:59;100251.66;;;0.40;93.96
24620;BME280;12763;55.802;37.404;2023-01-28T04:57:26;100260.97;;;0.47;93.93
24620;BME280;12763;55.802;37.404;2023-01-28T04:59:51;100268.47;;;0.34;93.88
24620;BME280;12763;55.802;37.404;2023-01-28T05:02:17;100275.13;;;0.50;93.80
24620;BME280;12763;55.802;37.404;2023-01-28T05:04:45;100280.53;;;0.41;93.32
24620;BME280;12763;55.802;37.404;2023-01-28T05:07:24;100271.28;;;0.23;93.61
24620;BME280;12763;55.802;37.404;2023-01-28T05:09:50;100275.63;;;0.35;93.79
24620;BME280;12763;55.802;37.404;2023-01-28T05:12:16;100285.38;;;0.37;93.12
24620;BME280;12763;55.802;37.404;2023-01-28T05:14:43;100278.72;;;0.21;94.33
24620;BME280;12763;55.802;37.404;2023-01-28T05:17:14;100273.13;;;0.22;93.75
24620;BME280;12763;55.802;37.404;2023-01-28T05:19:40;100276.00;;;0.21;93.21
24620;BME280;12763;55.802;37.404;2023-01-28T05:22:13;100279.66;;;-0.11;94.96
24620;BME280;12763;55.802;37.404;2023-01-28T05:24:46;100282.09;;;0.13;94.41
24620;BME280;12763;55.802;37.404;2023-01-28T05:27:13;100272.13;;;0.14;94.02
24620;BME280;12763;55.802;37.404;2023-01-28T05:29:38;100278.47;;;0.33;93.16
24620;BME280;12763;55.802;37.404;2023-01-28T05:32:04;100283.38;;;0.39;92.16
24620;BME280;12763;55.802;37.404;2023-01-28T05:34:30;100277.66;;;0.42;92.00
24620;BME280;12763;55.802;37.404;2023-01-28T05:36:59;100279.88;;;0.28;92.41
24620;BME280;12763;55.802;37.404;2023-01-28T05:39:35;100279.59;;;0.31;93.22
24620;BME280;12763;55.802;37.404;2023-01-28T05:42:01;100282.22;;;0.42;92.73
24620;BME280;12763;55.802;37.404;2023-01-28T05:44:27;100284.41;;;0.18;92.91
24620;BME280;12763;55.802;37.404;2023-01-28T05:47:12;100289.84;;;0.18;93.76
24620;BME280;12763;55.802;37.404;2023-01-28T05:49:49;100290.63;;;0.09;94.17
24620;BME280;12763;55.802;37.404;2023-01-28T05:52:42;100296.47;;;0.25;93.14
24620;BME280;12763;55.802;37.404;2023-01-28T05:55:16;100294.47;;;0.27;93.08
24620;BME280;12763;55.802;37.404;2023-01-28T05:57:42;100298.78;;;0.09;92.79
24620;BME280;12763;55.802;37.404;2023-01-28T06:00:11;100300.50;;;0.10;93.60
24620;BME280;12763;55.802;37.404;2023-01-28T06:02:41;100301.28;;;0.21;92.96
24620;BME280;12763;55.802;37.404;2023-01-28T06:05:09;100300.09;;;0.14;93.68
24620;BME280;12763;55.802;37.404;2023-01-28T06:07:35;100301.47;;;0.09;93.25
24620;BME280;12763;55.802;37.404;2023-01-28T06:10:01;100301.06;;;0.34;93.21
24620;BME280;12763;55.802;37.404;2023-01-28T06:12:28;100306.47;;;0.34;92.50
24620;BME280;12763;55.802;37.404;2023-01-28T06:15:13;100301.88;;;0.25;92.84
24620;BME280;12763;55.802;37.404;2023-01-28T06:18:04;100303.06;;;0.32;92.10
24620;BME280;12763;55.802;37.404;2023-01-28T06:20:32;100305.34;;;0.36;92.31
24620;BME280;12763;55.802;37.404;2023-01-28T06:22:59;100306.78;;;-0.11;93.49
24620;BME280;12763;55.802;37.404;2023-01-28T06:25:25;100301.22;;;0.12;93.36
24620;BME280;12763;55.802;37.404;2023-01-28T06:27:52;100301.47;;;0.09;93.09
24620;BME280;12763;55.802;37.404;2023-01-28T06:30:18;100307.47;;;0.03;93.57
24620;BME280;12763;55.802;37.404;2023-01-28T06:32:44;100308.84;;;0.18;93.39
24620;BME280;12763;55.802;37.404;2023-01-28T06:35:12;100303.13;;;0.21;93.22
24620;BME280;12763;55.802;37.404;2023-01-28T06:37:38;100303.75;;;0.24;93.26
24620;BME280;12763;55.802;37.404;2023-01-28T06:40:04;100305.06;;;0.30;92.78
24620;BME280;12763;55.802;37.404;2023-01-28T06:42:30;100309.94;;;0.36;92.49
24620;BME280;12763;55.802;37.404;2023-01-28T06:44:56;100311.72;;;0.26;92.79
24620;BME280;12763;55.802;37.404;2023-01-28T06:47:22;100317.97;;;0.17;93.69
24620;BME280;12763;55.802;37.404;2023-01-28T06:49:48;100311.06;;;0.33;93.05
24620;BME280;12763;55.802;37.404;2023-01-28T06:52:13;100325.56;;;0.23;93.48
24620;BME280;12763;55.802;37.404;2023-01-28T06:54:39;100328.63;;;0.29;93.66
24620;BME280;12763;55.802;37.404;2023-01-28T06:57:05;100325.00;;;0.19;93.51
24620;BME280;12763;55.802;37.404;2023-01-28T06:59:31;100326.19;;;0.26;93.60
24620;BME280;12763;55.802;37.404;2023-01-28T07:01:56;100320.69;;;0.17;94.12
24620;BME280;12763;55.802;37.404;2023-01-28T07:04:22;100324.13;;;0.19;93.96
24620;BME280;12763;55.802;37.404;2023-01-28T07:06:48;100321.63;;;-0.15;94.51
24620;BME280;12763;55.802;37.404;2023-01-28T07:09:14;100322.75;;;0.24;94.17
24620;BME280;12763;55.802;37.404;2023-01-28T07:11:42;100325.47;;;0.04;94.27
24620;BME280;12763;55.802;37.404;2023-01-28T07:14:07;100318.72;;;0.19;94.77
24620;BME280;12763;55.802;37.404;2023-01-28T07:16:33;100322.06;;;0.32;94.28
24620;BME280;12763;55.802;37.404;2023-01-28T07:18:59;100322.41;;;0.18;93.86
24620;BME280;12763;55.802;37.404;2023-01-28T07:21:25;100317.44;;;0.23;94.44
24620;BME280;12763;55.802;37.404;2023-01-28T07:23:50;100322.94;;;0.12;94.64
24620;BME280;12763;55.802;37.404;2023-01-28T07:26:16;100331.66;;;0.36;94.09
24620;BME280;12763;55.802;37.404;2023-01-28T07:28:44;100324.34;;;0.57;92.93
24620;BME280;12763;55.802;37.404;2023-01-28T07:31:10;100319.50;;;0.61;92.62
24620;BME280;12763;55.802;37.404;2023-01-28T07:33:36;100315.84;;;0.50;92.23
24620;BME280;12763;55.802;37.404;2023-01-28T07:36:02;100313.91;;;0.32;91.83
24620;BME280;12763;55.802;37.404;2023-01-28T07:38:28;100317.31;;;0.24;93.07
24620;BME280;12763;55.802;37.404;2023-01-28T07:40:53;100314.72;;;0.23;93.72
24620;BME280;12763;55.802;37.404;2023-01-28T07:43:19;100319.59;;;0.29;93.13
24620;BME280;12763;55.802;37.404;2023-01-28T07:45:48;100320.91;;;0.55;93.27
24620;BME280;12763;55.802;37.404;2023-01-28T07:48:14;100310.81;;;0.76;92.30
24620;BME280;12763;55.802;37.404;2023-01-28T07:50:40;100313.13;;;0.81;91.50
24620;BME280;12763;55.802;37.404;2023-01-28T07:53:09;100317.41;;;0.83;90.93
24620;BME280;12763;55.802;37.404;2023-01-28T07:55:36;100314.53;;;0.75;91.06
24620;BME280;12763;55.802;37.404;2023-01-28T07:58:03;100317.06;;;0.37;91.42
24620;BME280;12763;55.802;37.404;2023-01-28T08:00:31;100320.59;;;0.58;91.76
24620;BME280;12763;55.802;37.404;2023-01-28T08:03:00;100316.88;;;0.49;92.36
24620;BME280;12763;55.802;37.404;2023-01-28T08:05:39;100312.56;;;0.47;92.45
24620;BME280;12763;55.802;37.404;2023-01-28T08:08:07;100306.13;;;0.48;91.62
24620;BME280;12763;55.802;37.404;2023-01-28T08:10:36;100316.53;;;0.43;91.83
24620;BME280;12763;55.802;37.404;2023-01-28T08:13:03;100314.59;;;0.54;91.22
24620;BME280;12763;55.802;37.404;2023-01-28T08:15:29;100313.13;;;0.50;91.11
24620;BME280;12763;55.802;37.404;2023-01-28T08:17:57;100319.41;;;0.41;91.80
24620;BME280;12763;55.802;37.404;2023-01-28T08:20:27;100317.06;;;0.37;90.83
24620;BME280;12763;55.802;37.404;2023-01-28T08:22:53;100317.06;;;0.37;92.03
24620;BME280;12763;55.802;37.404;2023-01-28T08:25:28;100310.84;;;0.46;91.67
24620;BME280;12763;55.802;37.404;2023-01-28T08:27:54;100321.72;;;0.46;91.91
24620;BME280;12763;55.802;37.404;2023-01-28T08:30:20;100313.09;;;0.71;90.99
24620;BME280;12763;55.802;37.404;2023-01-28T08:32:45;100313.00;;;0.82;90.26
24620;BME280;12763;55.802;37.404;2023-01-28T08:35:11;100313.59;;;0.95;89.57
24620;BME280;12763;55.802;37.404;2023-01-28T08:37:37;100308.72;;;0.89;89.14
24620;BME280;12763;55.802;37.404;2023-01-28T08:40:03;100305.75;;;0.62;89.49
24620;BME280;12763;55.802;37.404;2023-01-28T08:42:29;100303.03;;;0.62;90.25
24620;BME280;12763;55.802;37.404;2023-01-28T08:44:57;100309.38;;;0.72;89.44
24620;BME280;12763;55.802;37.404;2023-01-28T08:47:23;100297.22;;;0.76;89.50
24620;BME280;12763;55.802;37.404;2023-01-28T08:49:51;100294.41;;;0.87;89.17
24620;BME280;12763;55.802;37.404;2023-01-28T08:52:19;100294.34;;;0.68;88.51
24620;BME280;12763;55.802;37.404;2023-01-28T08:54:48;100296.97;;;0.89;88.65
24620;BME280;12763;55.802;37.404;2023-01-28T08:57:13;100304.13;;;0.90;88.37
24620;BME280;12763;55.802;37.404;2023-01-28T08:59:39;100292.34;;;0.70;88.86
24620;BME280;12763;55.802;37.404;2023-01-28T09:02:12;100294.28;;;0.98;88.17
24620;BME280;12763;55.802;37.404;2023-01-28T09:04:38;100287.25;;;0.86;87.92
24620;BME280;12763;55.802;37.404;2023-01-28T09:07:03;100294.97;;;0.81;88.12
24620;BME280;12763;55.802;37.404;2023-01-28T09:09:32;100295.28;;;0.88;88.14
24620;BME280;12763;55.802;37.404;2023-01-28T09:11:58;100295.31;;;1.07;87.40
24620;BME280;12763;55.802;37.404;2023-01-28T09:14:24;100291.19;;;1.12;87.51
24620;BME280;12763;55.802;37.404;2023-01-28T09:16:49;100291.06;;;1.24;87.14
24620;BME280;12763;55.802;37.404;2023-01-28T09:19:15;100289.31;;;1.23;86.83
24620;BME280;12763;55.802;37.404;2023-01-28T09:21:41;100289.41;;;0.92;86.86
24620;BME280;12763;55.802;37.404;2023-01-28T09:24:10;100297.50;;;0.73;87.82
24620;BME280;12763;55.802;37.404;2023-01-28T09:26:36;100288.59;;;0.62;88.07
24620;BME280;12763;55.802;37.404;2023-01-28T09:29:02;100290.81;;;0.77;88.33
24620;BME280;12763;55.802;37.404;2023-01-28T09:31:28;100286.63;;;0.73;87.52
24620;BME280;12763;55.802;37.404;2023-01-28T09:33:54;100279.78;;;0.79;88.43
24620;BME280;12763;55.802;37.404;2023-01-28T09:36:22;100287.13;;;0.88;87.65
24620;BME280;12763;55.802;37.404;2023-01-28T09:38:48;100275.53;;;0.95;87.35
24620;BME280;12763;55.802;37.404;2023-01-28T09:46:42;100275.28;;;1.17;86.00
24620;BME280;12763;55.802;37.404;2023-01-28T09:49:37;100270.59;;;1.39;85.62
24620;BME280;12763;55.802;37.404;2023-01-28T09:52:15;100269.03;;;1.27;85.53
24620;BME280;12763;55.802;37.404;2023-01-28T09:54:58;100267.47;;;1.43;85.20
24620;BME280;12763;55.802;37.404;2023-01-28T09:57:37;100262.69;;;1.36;85.40
24620;BME280;12763;55.802;37.404;2023-01-28T10:00:14;100264.44;;;1.17;85.39
24620;BME280;12763;55.802;37.404;2023-01-28T10:10:29;100264.41;;;1.08;86.28
24620;BME280;12763;55.802;37.404;2023-01-28T10:13:11;100260.66;;;0.90;86.94
24620;BME280;12763;55.802;37.404;2023-01-28T10:15:50;100262.69;;;1.36;86.20
24620;BME280;12763;55.802;37.404;2023-01-28T10:18:29;100261.84;;;1.26;85.94
24620;BME280;12763;55.802;37.404;2023-01-28T10:21:06;100253.97;;;1.42;85.17
24620;BME280;12763;55.802;37.404;2023-01-28T10:23:44;100259.41;;;1.42;84.61
24620;BME280;12763;55.802;37.404;2023-01-28T10:26:26;100258.16;;;1.27;84.79
24620;BME280;12763;55.802;37.404;2023-01-28T10:29:02;100255.81;;;1.22;84.38
24620;BME280;12763;55.802;37.404;2023-01-28T10:31:35;100250.13;;;1.35;84.45
24620;BME280;12763;55.802;37.404;2023-01-28T10:34:03;100248.66;;;1.11;84.90
24620;BME280;12763;55.802;37.404;2023-01-28T10:36:29;100246.13;;;1.29;84.38
24620;BME280;12763;55.802;37.404;2023-01-28T10:38:56;100244.25;;;1.49;84.20
24620;BME280;12763;55.802;37.404;2023-01-28T10:41:22;100238.97;;;1.38;84.07
24620;BME280;12763;55.802;37.404;2023-01-28T10:43:53;100241.81;;;1.55;83.63
24620;BME280;12763;55.802;37.404;2023-01-28T10:46:31;100236.34;;;1.84;83.12
24620;BME280;12763;55.802;37.404;2023-01-28T10:49:21;100235.13;;;1.96;82.02
24620;BME280;12763;55.802;37.404;2023-01-28T10:51:50;100228.59;;;1.89;82.20
24620;BME280;12763;55.802;37.404;2023-01-28T10:54:27;100221.22;;;1.99;81.79
24620;BME280;12763;55.802;37.404;2023-01-28T10:57:04;100227.19;;;1.47;81.44
24620;BME280;12763;55.802;37.404;2023-01-28T10:59:34;100221.22;;;1.14;83.40
24620;BME280;12763;55.802;37.404;2023-01-28T11:05:13;100220.03;;;1.55;82.50
24620;BME280;12763;55.802;37.404;2023-01-28T11:07:40;100224.34;;;1.39;82.00
24620;BME280;12763;55.802;37.404;2023-01-28T11:12:58;100214.59;;;1.55;82.39
24620;BME280;12763;55.802;37.404;2023-01-28T11:15:24;100218.63;;;1.42;81.96
24620;BME280;12763;55.802;37.404;2023-01-28T11:17:55;100206.31;;;1.47;82.11
24620;BME280;12763;55.802;37.404;2023-01-28T11:20:24;100196.00;;;1.22;82.59
24620;BME280;12763;55.802;37.404;2023-01-28T11:22:50;100200.28;;;1.44;81.93
24620;BME280;12763;55.802;37.404;2023-01-28T11:25:33;100196.09;;;1.78;81.47
24620;BME280;12763;55.802;37.404;2023-01-28T11:28:02;100196.13;;;1.49;80.71
24620;BME280;12763;55.802;37.404;2023-01-28T11:30:37;100201.72;;;1.38;82.19
24620;BME280;12763;55.802;37.404;2023-01-28T11:35:39;100190.53;;;1.70;81.20
24620;BME280;12763;55.802;37.404;2023-01-28T11:38:23;100191.38;;;1.70;81.18
24620;BME280;12763;55.802;37.404;2023-01-28T11:40:50;100190.66;;;1.78;80.84
24620;BME280;12763;55.802;37.404;2023-01-28T11:43:22;100183.47;;;1.77;80.21
24620;BME280;12763;55.802;37.404;2023-01-28T11:49:16;100176.03;;;2.16;79.29
24620;BME280;12763;55.802;37.404;2023-01-28T11:51:55;100174.88;;;2.18;78.66
24620;BME280;12763;55.802;37.404;2023-01-28T11:59:58;100162.97;;;2.29;78.63
24620;BME280;12763;55.802;37.404;2023-01-28T12:08:43;100167.84;;;2.25;78.16
24620;BME280;12763;55.802;37.404;2023-01-28T12:11:23;100166.59;;;2.10;78.59
24620;BME280;12763;55.802;37.404;2023-01-28T12:15:07;100156.88;;;2.08;78.44
24620;BME280;12763;55.802;37.404;2023-01-28T12:20:00;100156.63;;;2.01;79.25
24620;BME280;12763;55.802;37.404;2023-01-28T12:23:04;100159.66;;;1.98;78.40
24620;BME280;12763;55.802;37.404;2023-01-28T12:42:09;100136.47;;;2.21;78.68
24620;BME280;12763;55.802;37.404;2023-01-28T12:47:38;100141.59;;;2.24;78.81
24620;BME280;12763;55.802;37.404;2023-01-28T12:52:58;100125.06;;;2.08;78.30
24620;BME280;12763;55.802;37.404;2023-01-28T12:55:40;100126.53;;;2.03;78.55
24620;BME280;12763;55.802;37.404;2023-01-28T12:59:10;100121.59;;;2.16;78.40
24620;BME280;12763;55.802;37.404;2023-01-28T13:01:13;100127.19;;;2.14;78.70
24620;BME280;12763;55.802;37.404;2023-01-28T13:03:42;100125.66;;;2.02;78.37
24620;BME280;12763;55.802;37.404;2023-01-28T13:06:36;100124.19;;;2.08;78.82
24620;BME280;12763;55.802;37.404;2023-01-28T13:09:15;100127.03;;;2.16;79.06
24620;BME280;12763;55.802;37.404;2023-01-28T13:11:41;100135.56;;;2.03;78.89
24620;BME280;12763;55.802;37.404;2023-01-28T13:14:09;100131.28;;;2.01;78.92
24620;BME280;12763;55.802;37.404;2023-01-28T13:16:37;100135.16;;;1.98;79.40
24620;BME280;12763;55.802;37.404;2023-01-28T13:19:24;100129.63;;;2.17;80.18
24620;BME280;12763;55.802;37.404;2023-01-28T13:22:09;100127.19;;;2.14;79.60
24620;BME280;12763;55.802;37.404;2023-01-28T13:24:35;100130.41;;;2.00;79.47
24620;BME280;12763;55.802;37.404;2023-01-28T13:27:11;100128.75;;;2.17;79.06
24620;BME280;12763;55.802;37.404;2023-01-28T13:29:37;100125.06;;;2.08;79.55
24620;BME280;12763;55.802;37.404;2023-01-28T13:32:26;100122.59;;;2.15;79.75
24620;BME280;12763;55.802;37.404;2023-01-28T13:34:58;100124.00;;;2.19;79.91
24620;BME280;12763;55.802;37.404;2023-01-28T13:37:35;100127.88;;;2.16;79.86
24620;BME280;12763;55.802;37.404;2023-01-28T13:40:20;100119.63;;;2.08;79.89
24620;BME280;12763;55.802;37.404;2023-01-28T13:42:56;100121.44;;;2.17;78.64
24620;BME280;12763;55.802;37.404;2023-01-28T13:45:24;100110.78;;;1.97;78.98
24620;BME280;12763;55.802;37.404;2023-01-28T13:47:56;100111.34;;;2.00;79.24
24620;BME280;12763;55.802;37.404;2023-01-28T13:50:36;100115.06;;;1.99;79.49
24620;BME280;12763;55.802;37.404;2023-01-28T13:53:40;100109.31;;;2.02;79.42
24620;BME280;12763;55.802;37.404;2023-01-28T13:56:08;100117.09;;;1.97;79.45
24620;BME280;12763;55.802;37.404;2023-01-28T14:17:49;100088.59;;;1.92;80.15
24620;BME280;12763;55.802;37.404;2023-01-28T14:20:24;100084.56;;;1.68;80.94
24620;BME280;12763;55.802;37.404;2023-01-28T14:22:58;100083.66;;;1.77;80.92
24620;BME280;12763;55.802;37.404;2023-01-28T14:26:00;100082.38;;;1.72;81.49
24620;BME280;12763;55.802;37.404;2023-01-28T14:31:29;100087.88;;;1.62;82.04
24620;BME280;12763;55.802;37.404;2023-01-28T14:36:47;100089.47;;;1.55;82.31
24620;BME280;12763;55.802;37.404;2023-01-28T14:39:27;100082.91;;;1.48;82.50
24620;BME280;12763;55.802;37.404;2023-01-28T14:41:59;100081.81;;;1.22;83.08
24620;BME280;12763;55.802;37.404;2023-01-28T14:44:37;100086.22;;;1.33;83.90
24620;BME280;12763;55.802;37.404;2023-01-28T14:47:38;100079.75;;;1.53;83.22
24620;BME280;12763;55.802;37.404;2023-01-28T14:58:19;100081.53;;;1.71;82.01
24620;BME280;12763;55.802;37.404;2023-01-28T15:00:55;100074.34;;;1.43;82.75
24620;BME280;12763;55.802;37.404;2023-01-28T15:03:21;100070.59;;;1.44;82.67